createdAt,value
2019-02-10T00:04:03.509Z,6.70
2019-02-10T00:09:07.464Z,6.70
2019-02-10T00:14:11.685Z,6.60
2019-02-10T00:19:15.412Z,6.70
2019-02-10T00:24:19.082Z,6.70
2019-02-10T00:29:23.023Z,6.70
2019-02-10T00:34:26.717Z,6.60
2019-02-10T00:39:30.389Z,6.60
2019-02-10T00:44:34.065Z,6.70
2019-02-10T00:49:37.816Z,6.70
2019-02-10T00:54:41.500Z,6.70
2019-02-10T00:59:45.172Z,6.70
2019-02-10T01:04:48.857Z,6.70
2019-02-10T01:09:52.536Z,6.80
2019-02-10T01:14:56.212Z,6.80
2019-02-10T01:19:59.880Z,6.90
2019-02-10T01:25:03.741Z,6.90
2019-02-10T01:30:13.747Z,7.00
2019-02-10T01:35:17.508Z,7.00
2019-02-10T01:40:21.181Z,7.00
2019-02-10T01:45:24.861Z,7.00
2019-02-10T01:50:28.540Z,7.00
2019-02-10T01:55:33.043Z,7.00
2019-02-10T02:00:36.962Z,7.00
2019-02-10T02:05:40.660Z,6.90
2019-02-10T02:10:44.325Z,6.80
2019-02-10T02:15:48.005Z,6.70
2019-02-10T02:20:51.694Z,6.70
2019-02-10T02:25:55.362Z,6.60
2019-02-10T02:30:59.064Z,6.50
2019-02-10T02:36:02.732Z,6.40
2019-02-10T02:41:25.746Z,6.30
2019-02-10T02:46:29.427Z,6.30
2019-02-10T02:51:33.095Z,6.30
2019-02-10T02:56:36.771Z,6.40
2019-02-10T03:01:40.519Z,6.40
2019-02-10T03:06:47.808Z,6.40
2019-02-10T03:11:51.479Z,6.40
2019-02-10T03:16:55.162Z,6.40
2019-02-10T03:21:58.907Z,6.50
2019-02-10T03:27:02.583Z,6.50
2019-02-10T03:32:06.270Z,6.50
2019-02-10T03:37:09.933Z,6.40
2019-02-10T03:42:13.613Z,6.40
2019-02-10T03:47:17.320Z,6.30
2019-02-10T03:52:21.036Z,6.30
2019-02-10T03:57:24.973Z,6.20
2019-02-10T04:02:29.037Z,6.10
2019-02-10T04:07:36.165Z,6.00
2019-02-10T04:12:38.108Z,5.90
2019-02-10T04:17:42.029Z,5.80
2019-02-10T04:22:46.062Z,5.70
2019-02-10T04:27:49.752Z,5.60
2019-02-10T04:32:53.510Z,5.50
2019-02-10T04:37:57.183Z,5.50
2019-02-10T04:43:00.851Z,5.40
2019-02-10T04:48:04.614Z,5.30
2019-02-10T04:53:08.350Z,5.30
2019-02-10T04:58:12.023Z,5.20
2019-02-10T05:03:15.684Z,5.20
2019-02-10T05:08:19.353Z,5.10
2019-02-10T05:13:23.033Z,5.10
2019-02-10T05:18:26.711Z,5.10
2019-02-10T05:23:30.425Z,5.10
2019-02-10T05:28:34.180Z,5.10
2019-02-10T05:33:38.183Z,5.10
2019-02-10T05:38:41.864Z,5.10
2019-02-10T05:43:45.530Z,5.10
2019-02-10T05:48:49.534Z,5.10
2019-02-10T05:53:53.215Z,5.00
2019-02-10T05:58:56.951Z,5.00
2019-02-10T06:04:00.649Z,5.10
2019-02-10T06:09:05.144Z,5.00
2019-02-10T06:14:08.902Z,5.10
2019-02-10T06:19:12.580Z,5.10
2019-02-10T06:24:16.270Z,5.10
2019-02-10T06:29:19.947Z,5.20
2019-02-10T06:34:23.671Z,5.20
2019-02-10T06:39:27.370Z,5.20
2019-02-10T06:44:31.174Z,5.30
2019-02-10T06:49:34.858Z,5.30
2019-02-10T06:54:45.067Z,5.40
2019-02-10T07:00:04.858Z,5.50
2019-02-10T07:05:10.277Z,5.50
2019-02-10T07:10:13.946Z,5.60
2019-02-10T07:15:53.998Z,5.60
2019-02-10T07:20:57.678Z,5.70
2019-02-10T07:26:03.521Z,5.80
2019-02-10T07:31:07.562Z,5.80
2019-02-10T07:36:35.850Z,5.90
2019-02-10T07:42:19.959Z,6.00
2019-02-10T07:47:52.245Z,6.00
2019-02-10T07:53:13.221Z,6.10
2019-02-10T07:58:35.918Z,6.20
2019-02-10T08:03:56.186Z,6.30
2019-02-10T08:09:33.405Z,6.40
2019-02-10T08:15:08.802Z,6.40
2019-02-10T08:20:42.116Z,6.50
2019-02-10T08:26:11.694Z,6.50
2019-02-10T08:32:07.853Z,6.60
2019-02-10T08:37:48.718Z,6.70
2019-02-10T08:43:55.195Z,6.70
2019-02-10T08:49:36.423Z,6.70
2019-02-10T08:54:40.171Z,6.80
2019-02-10T08:59:43.897Z,6.80
2019-02-10T09:04:47.882Z,6.90
2019-02-10T09:09:51.771Z,6.90
2019-02-10T09:14:55.536Z,6.90
2019-02-10T09:19:59.525Z,6.90
2019-02-10T09:25:03.266Z,6.90
2019-02-10T09:30:07.950Z,6.90
2019-02-10T09:35:11.653Z,6.90
2019-02-10T09:40:15.328Z,6.90
2019-02-10T09:45:19.465Z,6.90
2019-02-10T09:50:23.133Z,6.90
2019-02-10T09:55:26.897Z,6.80
2019-02-10T10:00:30.629Z,6.80
2019-02-10T10:05:34.322Z,6.80
2019-02-10T10:10:38.283Z,6.80
2019-02-10T10:15:42.238Z,6.80
2019-02-10T10:20:45.944Z,6.80
2019-02-10T10:25:49.725Z,6.80
2019-02-10T10:30:53.476Z,6.80
2019-02-10T10:35:57.173Z,6.80
2019-02-10T10:41:00.901Z,6.80
2019-02-10T10:46:04.575Z,6.80
2019-02-10T10:51:08.249Z,6.70
2019-02-10T10:56:11.995Z,6.70
2019-02-10T11:01:15.759Z,6.70
2019-02-10T11:06:19.433Z,6.70
2019-02-10T11:11:23.106Z,6.70
2019-02-10T11:16:27.086Z,6.70
2019-02-10T11:21:30.767Z,6.70
2019-02-10T11:26:34.439Z,6.80
2019-02-10T11:31:38.126Z,6.80
2019-02-10T11:36:41.798Z,6.80
2019-02-10T11:41:45.469Z,6.80
2019-02-10T11:46:49.147Z,6.80
2019-02-10T11:51:52.874Z,6.90
2019-02-10T11:56:56.537Z,6.90
2019-02-10T12:02:00.222Z,6.90
2019-02-10T12:07:04.004Z,6.90
2019-02-10T12:12:07.673Z,7.00
2019-02-10T12:17:11.488Z,7.00
2019-02-10T12:22:15.455Z,7.10
2019-02-10T12:27:19.144Z,7.10
2019-02-10T12:32:22.894Z,7.20
2019-02-10T12:37:32.245Z,7.20
2019-02-10T12:42:32.044Z,7.30
2019-02-10T12:47:35.859Z,7.40
2019-02-10T12:52:39.707Z,7.40
2019-02-10T12:57:43.369Z,7.50
2019-02-10T13:02:47.100Z,7.50
2019-02-10T13:07:52.621Z,7.60
2019-02-10T13:12:56.306Z,7.60
2019-02-10T13:18:00.452Z,7.70
2019-02-10T13:23:04.213Z,7.70
2019-02-10T13:28:08.162Z,7.70
2019-02-10T13:33:11.987Z,7.80
2019-02-10T13:38:15.749Z,7.90
2019-02-10T13:43:19.435Z,7.90
2019-02-10T13:48:23.124Z,7.90
2019-02-10T13:53:26.884Z,8.00
2019-02-10T13:58:30.626Z,8.00
2019-02-10T14:03:34.294Z,8.00
2019-02-10T14:08:37.970Z,8.00
2019-02-10T14:13:41.710Z,8.00
2019-02-10T14:18:45.377Z,8.00
2019-02-10T14:23:49.378Z,8.10
2019-02-10T14:28:53.054Z,8.10
2019-02-10T14:33:56.815Z,8.10
2019-02-10T14:39:00.542Z,8.00
2019-02-10T14:44:04.208Z,8.10
2019-02-10T14:49:08.191Z,8.10
2019-02-10T14:54:11.861Z,8.10
2019-02-10T14:59:15.597Z,8.10
2019-02-10T15:04:19.296Z,8.10
2019-02-10T15:09:22.984Z,8.10
2019-02-10T15:14:26.907Z,8.10
2019-02-10T15:19:30.825Z,8.10
2019-02-10T15:24:34.530Z,8.10
2019-02-10T15:29:38.202Z,8.10
2019-02-10T15:34:41.909Z,8.10
2019-02-10T15:39:45.918Z,8.10
2019-02-10T15:44:49.603Z,8.10
2019-02-10T15:49:53.358Z,8.10
2019-02-10T15:54:57.042Z,8.10
2019-02-10T16:00:00.742Z,8.10
2019-02-10T16:05:04.574Z,8.10
2019-02-10T16:10:09.578Z,8.10
2019-02-10T16:15:13.414Z,8.00
2019-02-10T16:20:17.099Z,8.10
2019-02-10T16:25:20.813Z,8.10
2019-02-10T16:30:24.516Z,8.10
2019-02-10T16:35:28.256Z,8.10
2019-02-10T16:40:32.017Z,8.10
2019-02-10T16:45:35.686Z,8.10
2019-02-10T16:50:39.375Z,8.10
2019-02-10T16:55:43.037Z,8.00
2019-02-10T17:00:46.714Z,8.00
2019-02-10T17:05:50.483Z,8.00
2019-02-10T17:10:54.166Z,8.00
2019-02-10T17:16:04.988Z,8.00
2019-02-10T17:21:03.555Z,8.00
2019-02-10T17:26:07.238Z,8.00
2019-02-10T17:31:10.998Z,8.00
2019-02-10T17:36:14.689Z,8.10
2019-02-10T17:41:25.686Z,8.10
2019-02-10T17:46:29.386Z,8.10
2019-02-10T17:51:33.082Z,8.10
2019-02-10T17:56:37.219Z,8.10
2019-02-10T18:01:41.030Z,8.10
2019-02-10T18:06:45.330Z,8.20
2019-02-10T18:11:49.059Z,8.20
2019-02-10T18:17:00.369Z,8.20
2019-02-10T18:22:11.404Z,8.20
2019-02-10T18:27:40.571Z,8.30
2019-02-10T18:33:06.398Z,8.30
2019-02-10T18:38:41.675Z,8.30
2019-02-10T18:44:04.010Z,8.40
2019-02-10T18:49:36.274Z,8.40
2019-02-10T18:54:48.298Z,8.40
2019-02-10T19:00:01.237Z,8.40
2019-02-10T19:05:14.363Z,8.50
2019-02-10T19:10:32.059Z,8.50
2019-02-10T19:15:57.262Z,8.50
2019-02-10T19:21:21.418Z,8.50
2019-02-10T19:26:53.603Z,8.50
2019-02-10T19:32:22.981Z,8.50
2019-02-10T19:37:44.565Z,8.50
2019-02-10T19:43:02.962Z,8.50
2019-02-10T19:48:17.118Z,8.50
2019-02-10T19:53:33.514Z,8.50
2019-02-10T19:58:59.537Z,8.50
2019-02-10T20:04:25.867Z,8.50
2019-02-10T20:10:00.903Z,8.50
2019-02-10T20:15:18.210Z,8.40
2019-02-10T20:20:38.013Z,8.40
2019-02-10T20:25:54.392Z,8.40
2019-02-10T20:31:23.636Z,8.40
2019-02-10T20:36:33.299Z,8.40
2019-02-10T20:41:59.186Z,8.40
2019-02-10T20:47:21.884Z,8.40
2019-02-10T20:52:54.487Z,8.40
2019-02-10T20:58:14.978Z,8.40
2019-02-10T21:03:27.582Z,8.40
2019-02-10T21:08:53.593Z,8.40
2019-02-10T21:14:07.918Z,8.40
2019-02-10T21:19:36.865Z,8.40
2019-02-10T21:24:51.654Z,8.40
2019-02-10T21:30:20.622Z,8.40
2019-02-10T21:35:30.934Z,8.40
2019-02-10T21:40:45.444Z,8.30
2019-02-10T21:46:02.850Z,8.40
2019-02-10T21:51:06.991Z,8.40
2019-02-10T21:56:11.116Z,8.40
2019-02-10T22:01:15.993Z,8.40
2019-02-10T22:06:20.287Z,8.30
2019-02-10T22:11:24.025Z,8.30
2019-02-10T22:16:27.725Z,8.20
2019-02-10T22:21:31.398Z,8.20
2019-02-10T22:26:35.078Z,8.20
2019-02-10T22:31:39.078Z,8.20
2019-02-10T22:36:43.410Z,8.20
2019-02-10T22:41:47.101Z,8.10
2019-02-10T22:46:50.773Z,8.10
2019-02-10T22:51:54.448Z,8.00
2019-02-10T22:56:58.736Z,8.00
2019-02-10T23:02:02.555Z,7.90
2019-02-10T23:07:06.227Z,7.90
2019-02-10T23:12:09.937Z,7.80
2019-02-10T23:17:13.932Z,7.70
2019-02-10T23:22:17.612Z,7.70
2019-02-10T23:27:21.287Z,7.60
2019-02-10T23:32:24.971Z,7.60
2019-02-10T23:37:28.676Z,7.60
2019-02-10T23:42:32.411Z,7.50
2019-02-10T23:47:36.106Z,7.40
2019-02-10T23:52:39.787Z,7.40
2019-02-10T23:57:43.488Z,7.10
